<?xml version="1.0" encoding="UTF-8" standalone="no" ?>
<gpx xmlns="http://www.topografix.com/GPX/1/1" xmlns:xsi="http://www.w3.org/2001/XMLSchema-instance" xsi:schemaLocation="http://www.topografix.com/GPX/1/1 http://www.topografix.com/GPX/1/1/gpx.xsd" version="1.1" creator="VisuGPX - https://www.visugpx.com">
  <metadata>
    <name>Randonnée Armeau - Valprofonde</name>
    <desc><![CDATA[préparation séjour]]></desc>
  </metadata>
  <trk>
    <name><![CDATA[Randonnée Armeau - Valprofonde]]></name>
    <trkseg>
      <trkpt lat="48.04576" lon="3.31972">
        <ele>75</ele>
        <time>2017-06-29T15:15:57Z</time>
      </trkpt>
      <trkpt lat="48.04625" lon="3.32012">
        <ele>75</ele>
        <time>2017-06-29T15:17:57Z</time>
      </trkpt>
      <trkpt lat="48.04643" lon="3.31982">
        <ele>75</ele>
        <time>2017-06-29T15:19:57Z</time>
      </trkpt>
      <trkpt lat="48.04678" lon="3.31985">
        <ele>75</ele>
        <time>2017-06-29T15:21:57Z</time>
      </trkpt>
      <trkpt lat="48.04695" lon="3.32045">
        <ele>77</ele>
        <time>2017-06-29T15:23:57Z</time>
      </trkpt>
      <trkpt lat="48.04717" lon="3.32111">
        <ele>78</ele>
        <time>2017-06-29T15:25:57Z</time>
      </trkpt>
      <trkpt lat="48.04743" lon="3.32173">
        <ele>80</ele>
        <time>2017-06-29T15:27:57Z</time>
      </trkpt>
      <trkpt lat="48.04772" lon="3.32192">
        <ele>81</ele>
        <time>2017-06-29T15:29:57Z</time>
      </trkpt>
      <trkpt lat="48.04823" lon="3.32207">
        <ele>84</ele>
        <time>2017-06-29T15:31:57Z</time>
      </trkpt>
      <trkpt lat="48.04855" lon="3.32179">
        <ele>88</ele>
        <time>2017-06-29T15:33:57Z</time>
      </trkpt>
      <trkpt lat="48.04891" lon="3.32153">
        <ele>93</ele>
        <time>2017-06-29T15:35:57Z</time>
      </trkpt>
      <trkpt lat="48.04924" lon="3.32163">
        <ele>98</ele>
        <time>2017-06-29T15:37:57Z</time>
      </trkpt>
      <trkpt lat="48.04958" lon="3.32186">
        <ele>103</ele>
        <time>2017-06-29T15:39:57Z</time>
      </trkpt>
      <trkpt lat="48.04987" lon="3.322">
        <ele>107</ele>
        <time>2017-06-29T15:41:57Z</time>
      </trkpt>
      <trkpt lat="48.05008" lon="3.32201">
        <ele>111</ele>
        <time>2017-06-29T15:43:57Z</time>
      </trkpt>
      <trkpt lat="48.05034" lon="3.3221">
        <ele>116</ele>
        <time>2017-06-29T15:45:57Z</time>
      </trkpt>
      <trkpt lat="48.05061" lon="3.32221">
        <ele>122</ele>
        <time>2017-06-29T15:47:57Z</time>
      </trkpt>
      <trkpt lat="48.05068" lon="3.32234">
        <ele>124</ele>
        <time>2017-06-29T15:49:57Z</time>
      </trkpt>
      <trkpt lat="48.05079" lon="3.32273">
        <ele>128</ele>
        <time>2017-06-29T15:51:57Z</time>
      </trkpt>
      <trkpt lat="48.05088" lon="3.32315">
        <ele>132</ele>
        <time>2017-06-29T15:53:57Z</time>
      </trkpt>
      <trkpt lat="48.05087" lon="3.32346">
        <ele>133</ele>
        <time>2017-06-29T15:55:57Z</time>
      </trkpt>
      <trkpt lat="48.05092" lon="3.32382">
        <ele>135</ele>
        <time>2017-06-29T15:57:57Z</time>
      </trkpt>
      <trkpt lat="48.05102" lon="3.32423">
        <ele>139</ele>
        <time>2017-06-29T15:59:57Z</time>
      </trkpt>
      <trkpt lat="48.05113" lon="3.32467">
        <ele>142</ele>
        <time>2017-06-29T16:01:57Z</time>
      </trkpt>
      <trkpt lat="48.05126" lon="3.32509">
        <ele>145</ele>
        <time>2017-06-29T16:03:57Z</time>
      </trkpt>
      <trkpt lat="48.0514" lon="3.3255">
        <ele>149</ele>
        <time>2017-06-29T16:05:57Z</time>
      </trkpt>
      <trkpt lat="48.05157" lon="3.3259">
        <ele>153</ele>
        <time>2017-06-29T16:07:57Z</time>
      </trkpt>
      <trkpt lat="48.05177" lon="3.32626">
        <ele>158</ele>
        <time>2017-06-29T16:09:57Z</time>
      </trkpt>
      <trkpt lat="48.05193" lon="3.32665">
        <ele>161</ele>
        <time>2017-06-29T16:11:57Z</time>
      </trkpt>
      <trkpt lat="48.05201" lon="3.32699">
        <ele>163</ele>
        <time>2017-06-29T16:13:57Z</time>
      </trkpt>
      <trkpt lat="48.0521" lon="3.32742">
        <ele>165</ele>
        <time>2017-06-29T16:15:57Z</time>
      </trkpt>
      <trkpt lat="48.05219" lon="3.3278">
        <ele>168</ele>
        <time>2017-06-29T16:17:57Z</time>
      </trkpt>
      <trkpt lat="48.05216" lon="3.32819">
        <ele>169</ele>
        <time>2017-06-29T16:19:57Z</time>
      </trkpt>
      <trkpt lat="48.05216" lon="3.32886">
        <ele>171</ele>
        <time>2017-06-29T16:21:57Z</time>
      </trkpt>
      <trkpt lat="48.05198" lon="3.32993">
        <ele>173</ele>
        <time>2017-06-29T16:23:57Z</time>
      </trkpt>
      <trkpt lat="48.05183" lon="3.33056">
        <ele>174</ele>
        <time>2017-06-29T16:25:57Z</time>
      </trkpt>
      <trkpt lat="48.0517" lon="3.3312">
        <ele>174</ele>
        <time>2017-06-29T16:27:57Z</time>
      </trkpt>
      <trkpt lat="48.05158" lon="3.33184">
        <ele>173</ele>
        <time>2017-06-29T16:29:57Z</time>
      </trkpt>
      <trkpt lat="48.05149" lon="3.33248">
        <ele>173</ele>
        <time>2017-06-29T16:31:57Z</time>
      </trkpt>
      <trkpt lat="48.05145" lon="3.33313">
        <ele>174</ele>
        <time>2017-06-29T16:33:57Z</time>
      </trkpt>
      <trkpt lat="48.05145" lon="3.33442">
        <ele>175</ele>
        <time>2017-06-29T16:35:57Z</time>
      </trkpt>
      <trkpt lat="48.05141" lon="3.33513">
        <ele>175</ele>
        <time>2017-06-29T16:37:57Z</time>
      </trkpt>
      <trkpt lat="48.05139" lon="3.33585">
        <ele>175</ele>
        <time>2017-06-29T16:39:57Z</time>
      </trkpt>
      <trkpt lat="48.05123" lon="3.33653">
        <ele>176</ele>
        <time>2017-06-29T16:41:57Z</time>
      </trkpt>
      <trkpt lat="48.0509" lon="3.33711">
        <ele>174</ele>
        <time>2017-06-29T16:43:57Z</time>
      </trkpt>
      <trkpt lat="48.05064" lon="3.33752">
        <ele>173</ele>
        <time>2017-06-29T16:45:57Z</time>
      </trkpt>
      <trkpt lat="48.05032" lon="3.33804">
        <ele>175</ele>
        <time>2017-06-29T16:47:57Z</time>
      </trkpt>
      <trkpt lat="48.05019" lon="3.33835">
        <ele>176</ele>
        <time>2017-06-29T16:49:57Z</time>
      </trkpt>
      <trkpt lat="48.0502" lon="3.33843">
        <ele>175</ele>
        <time>2017-06-29T16:51:57Z</time>
      </trkpt>
      <trkpt lat="48.05044" lon="3.33893">
        <ele>175</ele>
        <time>2017-06-29T16:53:57Z</time>
      </trkpt>
      <trkpt lat="48.05114" lon="3.33992">
        <ele>180</ele>
        <time>2017-06-29T16:55:57Z</time>
      </trkpt>
      <trkpt lat="48.05142" lon="3.34041">
        <ele>181</ele>
        <time>2017-06-29T16:57:57Z</time>
      </trkpt>
      <trkpt lat="48.05174" lon="3.34092">
        <ele>182</ele>
        <time>2017-06-29T16:59:57Z</time>
      </trkpt>
      <trkpt lat="48.05211" lon="3.34141">
        <ele>184</ele>
        <time>2017-06-29T17:01:57Z</time>
      </trkpt>
      <trkpt lat="48.05251" lon="3.34183">
        <ele>186</ele>
        <time>2017-06-29T17:03:57Z</time>
      </trkpt>
      <trkpt lat="48.05273" lon="3.34204">
        <ele>187</ele>
        <time>2017-06-29T17:05:57Z</time>
      </trkpt>
      <trkpt lat="48.05306" lon="3.342">
        <ele>186</ele>
        <time>2017-06-29T17:07:57Z</time>
      </trkpt>
      <trkpt lat="48.05342" lon="3.34234">
        <ele>187</ele>
        <time>2017-06-29T17:09:57Z</time>
      </trkpt>
      <trkpt lat="48.05374" lon="3.34263">
        <ele>187</ele>
        <time>2017-06-29T17:11:57Z</time>
      </trkpt>
      <trkpt lat="48.05388" lon="3.34281">
        <ele>187</ele>
        <time>2017-06-29T17:13:57Z</time>
      </trkpt>
      <trkpt lat="48.05407" lon="3.34307">
        <ele>187</ele>
        <time>2017-06-29T17:15:57Z</time>
      </trkpt>
      <trkpt lat="48.05407" lon="3.34299">
        <ele>187</ele>
        <time>2017-06-29T17:17:57Z</time>
      </trkpt>
      <trkpt lat="48.05414" lon="3.34309">
        <ele>187</ele>
        <time>2017-06-29T17:19:57Z</time>
      </trkpt>
      <trkpt lat="48.05428" lon="3.3431">
        <ele>186</ele>
        <time>2017-06-29T17:21:57Z</time>
      </trkpt>
      <trkpt lat="48.05463" lon="3.34342">
        <ele>185</ele>
        <time>2017-06-29T17:23:57Z</time>
      </trkpt>
      <trkpt lat="48.05506" lon="3.34382">
        <ele>183</ele>
        <time>2017-06-29T17:25:57Z</time>
      </trkpt>
      <trkpt lat="48.05548" lon="3.34425">
        <ele>181</ele>
        <time>2017-06-29T17:27:57Z</time>
      </trkpt>
      <trkpt lat="48.05591" lon="3.34466">
        <ele>179</ele>
        <time>2017-06-29T17:29:57Z</time>
      </trkpt>
      <trkpt lat="48.0563" lon="3.34504">
        <ele>177</ele>
        <time>2017-06-29T17:31:57Z</time>
      </trkpt>
      <trkpt lat="48.05673" lon="3.34544">
        <ele>175</ele>
        <time>2017-06-29T17:33:57Z</time>
      </trkpt>
      <trkpt lat="48.05755" lon="3.34617">
        <ele>174</ele>
        <time>2017-06-29T17:35:57Z</time>
      </trkpt>
      <trkpt lat="48.05796" lon="3.3465">
        <ele>174</ele>
        <time>2017-06-29T17:37:57Z</time>
      </trkpt>
      <trkpt lat="48.05833" lon="3.34692">
        <ele>174</ele>
        <time>2017-06-29T17:39:57Z</time>
      </trkpt>
      <trkpt lat="48.05856" lon="3.34712">
        <ele>173</ele>
        <time>2017-06-29T17:41:57Z</time>
      </trkpt>
      <trkpt lat="48.05888" lon="3.34703">
        <ele>173</ele>
        <time>2017-06-29T17:43:57Z</time>
      </trkpt>
      <trkpt lat="48.05927" lon="3.34701">
        <ele>173</ele>
        <time>2017-06-29T17:45:57Z</time>
      </trkpt>
      <trkpt lat="48.05961" lon="3.34731">
        <ele>175</ele>
        <time>2017-06-29T17:47:57Z</time>
      </trkpt>
      <trkpt lat="48.06004" lon="3.34762">
        <ele>177</ele>
        <time>2017-06-29T17:49:57Z</time>
      </trkpt>
      <trkpt lat="48.06041" lon="3.3481">
        <ele>174</ele>
        <time>2017-06-29T17:51:57Z</time>
      </trkpt>
      <trkpt lat="48.06078" lon="3.34842">
        <ele>171</ele>
        <time>2017-06-29T17:53:57Z</time>
      </trkpt>
      <trkpt lat="48.06122" lon="3.34873">
        <ele>168</ele>
        <time>2017-06-29T17:55:57Z</time>
      </trkpt>
      <trkpt lat="48.06157" lon="3.34923">
        <ele>165</ele>
        <time>2017-06-29T17:57:57Z</time>
      </trkpt>
      <trkpt lat="48.06159" lon="3.34928">
        <ele>165</ele>
        <time>2017-06-29T17:59:57Z</time>
      </trkpt>
      <trkpt lat="48.06173" lon="3.34948">
        <ele>164</ele>
        <time>2017-06-29T18:01:57Z</time>
      </trkpt>
      <trkpt lat="48.06205" lon="3.34998">
        <ele>162</ele>
        <time>2017-06-29T18:03:57Z</time>
      </trkpt>
      <trkpt lat="48.06257" lon="3.3507">
        <ele>155</ele>
        <time>2017-06-29T18:05:57Z</time>
      </trkpt>
      <trkpt lat="48.06289" lon="3.35118">
        <ele>150</ele>
        <time>2017-06-29T18:07:57Z</time>
      </trkpt>
      <trkpt lat="48.06322" lon="3.35171">
        <ele>145</ele>
        <time>2017-06-29T18:09:57Z</time>
      </trkpt>
      <trkpt lat="48.06347" lon="3.35231">
        <ele>139</ele>
        <time>2017-06-29T18:11:57Z</time>
      </trkpt>
      <trkpt lat="48.06364" lon="3.35285">
        <ele>135</ele>
        <time>2017-06-29T18:13:57Z</time>
      </trkpt>
      <trkpt lat="48.064" lon="3.3536">
        <ele>132</ele>
        <time>2017-06-29T18:15:57Z</time>
      </trkpt>
      <trkpt lat="48.06429" lon="3.35363">
        <ele>131</ele>
        <time>2017-06-29T18:17:57Z</time>
      </trkpt>
      <trkpt lat="48.0647" lon="3.35375">
        <ele>129</ele>
        <time>2017-06-29T18:19:57Z</time>
      </trkpt>
      <trkpt lat="48.06496" lon="3.35381">
        <ele>128</ele>
        <time>2017-06-29T18:21:57Z</time>
      </trkpt>
      <trkpt lat="48.06509" lon="3.35381">
        <ele>128</ele>
        <time>2017-06-29T18:23:57Z</time>
      </trkpt>
      <trkpt lat="48.06526" lon="3.35386">
        <ele>128</ele>
        <time>2017-06-29T18:25:57Z</time>
      </trkpt>
      <trkpt lat="48.0657" lon="3.35367">
        <ele>128</ele>
        <time>2017-06-29T18:27:57Z</time>
      </trkpt>
      <trkpt lat="48.06591" lon="3.35331">
        <ele>130</ele>
        <time>2017-06-29T18:29:57Z</time>
      </trkpt>
      <trkpt lat="48.06584" lon="3.35289">
        <ele>128</ele>
        <time>2017-06-29T18:31:57Z</time>
      </trkpt>
      <trkpt lat="48.06576" lon="3.35218">
        <ele>127</ele>
        <time>2017-06-29T18:33:57Z</time>
      </trkpt>
      <trkpt lat="48.06576" lon="3.35196">
        <ele>126</ele>
        <time>2017-06-29T18:35:57Z</time>
      </trkpt>
      <trkpt lat="48.06584" lon="3.35143">
        <ele>125</ele>
        <time>2017-06-29T18:37:57Z</time>
      </trkpt>
      <trkpt lat="48.06591" lon="3.35072">
        <ele>124</ele>
        <time>2017-06-29T18:39:57Z</time>
      </trkpt>
      <trkpt lat="48.06607" lon="3.35002">
        <ele>124</ele>
        <time>2017-06-29T18:41:57Z</time>
      </trkpt>
      <trkpt lat="48.06633" lon="3.34935">
        <ele>125</ele>
        <time>2017-06-29T18:43:57Z</time>
      </trkpt>
      <trkpt lat="48.06664" lon="3.34876">
        <ele>123</ele>
        <time>2017-06-29T18:45:57Z</time>
      </trkpt>
      <trkpt lat="48.06699" lon="3.34822">
        <ele>125</ele>
        <time>2017-06-29T18:47:57Z</time>
      </trkpt>
      <trkpt lat="48.06723" lon="3.34768">
        <ele>124</ele>
        <time>2017-06-29T18:49:57Z</time>
      </trkpt>
      <trkpt lat="48.06756" lon="3.34714">
        <ele>123</ele>
        <time>2017-06-29T18:51:57Z</time>
      </trkpt>
      <trkpt lat="48.0678" lon="3.34646">
        <ele>123</ele>
        <time>2017-06-29T18:53:57Z</time>
      </trkpt>
      <trkpt lat="48.06786" lon="3.34586">
        <ele>122</ele>
        <time>2017-06-29T18:55:57Z</time>
      </trkpt>
      <trkpt lat="48.06791" lon="3.34548">
        <ele>121</ele>
        <time>2017-06-29T18:57:57Z</time>
      </trkpt>
      <trkpt lat="48.06817" lon="3.3451">
        <ele>120</ele>
        <time>2017-06-29T18:59:57Z</time>
      </trkpt>
      <trkpt lat="48.06854" lon="3.34472">
        <ele>122</ele>
        <time>2017-06-29T19:01:57Z</time>
      </trkpt>
      <trkpt lat="48.06891" lon="3.34418">
        <ele>123</ele>
        <time>2017-06-29T19:03:57Z</time>
      </trkpt>
      <trkpt lat="48.06918" lon="3.34351">
        <ele>121</ele>
        <time>2017-06-29T19:05:57Z</time>
      </trkpt>
      <trkpt lat="48.06937" lon="3.34278">
        <ele>122</ele>
        <time>2017-06-29T19:07:57Z</time>
      </trkpt>
      <trkpt lat="48.06956" lon="3.34213">
        <ele>121</ele>
        <time>2017-06-29T19:09:57Z</time>
      </trkpt>
      <trkpt lat="48.0697" lon="3.3414">
        <ele>118</ele>
        <time>2017-06-29T19:11:57Z</time>
      </trkpt>
      <trkpt lat="48.06998" lon="3.34079">
        <ele>115</ele>
        <time>2017-06-29T19:13:57Z</time>
      </trkpt>
      <trkpt lat="48.07031" lon="3.34042">
        <ele>116</ele>
        <time>2017-06-29T19:15:57Z</time>
      </trkpt>
      <trkpt lat="48.07068" lon="3.34007">
        <ele>116</ele>
        <time>2017-06-29T19:17:57Z</time>
      </trkpt>
      <trkpt lat="48.07094" lon="3.33965">
        <ele>116</ele>
        <time>2017-06-29T19:19:57Z</time>
      </trkpt>
      <trkpt lat="48.07119" lon="3.33924">
        <ele>118</ele>
        <time>2017-06-29T19:21:57Z</time>
      </trkpt>
      <trkpt lat="48.07143" lon="3.33898">
        <ele>120</ele>
        <time>2017-06-29T19:23:57Z</time>
      </trkpt>
      <trkpt lat="48.07174" lon="3.33868">
        <ele>124</ele>
        <time>2017-06-29T19:25:57Z</time>
      </trkpt>
      <trkpt lat="48.07206" lon="3.33859">
        <ele>129</ele>
        <time>2017-06-29T19:27:57Z</time>
      </trkpt>
      <trkpt lat="48.07237" lon="3.33866">
        <ele>133</ele>
        <time>2017-06-29T19:29:57Z</time>
      </trkpt>
      <trkpt lat="48.07271" lon="3.33873">
        <ele>139</ele>
        <time>2017-06-29T19:31:57Z</time>
      </trkpt>
      <trkpt lat="48.07295" lon="3.33881">
        <ele>144</ele>
        <time>2017-06-29T19:33:57Z</time>
      </trkpt>
      <trkpt lat="48.07312" lon="3.33882">
        <ele>147</ele>
        <time>2017-06-29T19:35:57Z</time>
      </trkpt>
      <trkpt lat="48.07318" lon="3.33871">
        <ele>150</ele>
        <time>2017-06-29T19:37:57Z</time>
      </trkpt>
      <trkpt lat="48.07318" lon="3.33841">
        <ele>152</ele>
        <time>2017-06-29T19:39:57Z</time>
      </trkpt>
      <trkpt lat="48.07322" lon="3.33779">
        <ele>153</ele>
        <time>2017-06-29T19:41:57Z</time>
      </trkpt>
      <trkpt lat="48.07329" lon="3.33721">
        <ele>153</ele>
        <time>2017-06-29T19:43:57Z</time>
      </trkpt>
      <trkpt lat="48.0734" lon="3.33653">
        <ele>154</ele>
        <time>2017-06-29T19:45:57Z</time>
      </trkpt>
      <trkpt lat="48.07357" lon="3.33591">
        <ele>153</ele>
        <time>2017-06-29T19:47:57Z</time>
      </trkpt>
      <trkpt lat="48.07386" lon="3.33538">
        <ele>154</ele>
        <time>2017-06-29T19:49:57Z</time>
      </trkpt>
      <trkpt lat="48.07412" lon="3.33492">
        <ele>154</ele>
        <time>2017-06-29T19:51:57Z</time>
      </trkpt>
      <trkpt lat="48.07425" lon="3.33456">
        <ele>153</ele>
        <time>2017-06-29T19:53:57Z</time>
      </trkpt>
      <trkpt lat="48.07451" lon="3.33399">
        <ele>152</ele>
        <time>2017-06-29T19:55:57Z</time>
      </trkpt>
      <trkpt lat="48.07476" lon="3.33341">
        <ele>149</ele>
        <time>2017-06-29T19:57:57Z</time>
      </trkpt>
      <trkpt lat="48.075" lon="3.33298">
        <ele>146</ele>
        <time>2017-06-29T19:59:57Z</time>
      </trkpt>
      <trkpt lat="48.07535" lon="3.33247">
        <ele>142</ele>
        <time>2017-06-29T20:01:57Z</time>
      </trkpt>
      <trkpt lat="48.07563" lon="3.33191">
        <ele>137</ele>
        <time>2017-06-29T20:03:57Z</time>
      </trkpt>
      <trkpt lat="48.07588" lon="3.33135">
        <ele>131</ele>
        <time>2017-06-29T20:05:57Z</time>
      </trkpt>
      <trkpt lat="48.07617" lon="3.3308">
        <ele>126</ele>
        <time>2017-06-29T20:07:57Z</time>
      </trkpt>
      <trkpt lat="48.07639" lon="3.33061">
        <ele>127</ele>
        <time>2017-06-29T20:09:57Z</time>
      </trkpt>
      <trkpt lat="48.07659" lon="3.33079">
        <ele>129</ele>
        <time>2017-06-29T20:11:57Z</time>
      </trkpt>
      <trkpt lat="48.07668" lon="3.33088">
        <ele>129</ele>
        <time>2017-06-29T20:13:57Z</time>
      </trkpt>
      <trkpt lat="48.07688" lon="3.33115">
        <ele>133</ele>
        <time>2017-06-29T20:15:57Z</time>
      </trkpt>
      <trkpt lat="48.07711" lon="3.33122">
        <ele>136</ele>
        <time>2017-06-29T20:17:57Z</time>
      </trkpt>
      <trkpt lat="48.07745" lon="3.33114">
        <ele>141</ele>
        <time>2017-06-29T20:19:57Z</time>
      </trkpt>
      <trkpt lat="48.07778" lon="3.33124">
        <ele>146</ele>
        <time>2017-06-29T20:21:57Z</time>
      </trkpt>
      <trkpt lat="48.07806" lon="3.33138">
        <ele>150</ele>
        <time>2017-06-29T20:23:57Z</time>
      </trkpt>
      <trkpt lat="48.07834" lon="3.33166">
        <ele>154</ele>
        <time>2017-06-29T20:25:57Z</time>
      </trkpt>
      <trkpt lat="48.07855" lon="3.33197">
        <ele>159</ele>
        <time>2017-06-29T20:27:57Z</time>
      </trkpt>
      <trkpt lat="48.07877" lon="3.33226">
        <ele>164</ele>
        <time>2017-06-29T20:29:57Z</time>
      </trkpt>
      <trkpt lat="48.07921" lon="3.33291">
        <ele>170</ele>
        <time>2017-06-29T20:31:57Z</time>
      </trkpt>
      <trkpt lat="48.07936" lon="3.33323">
        <ele>171</ele>
        <time>2017-06-29T20:33:57Z</time>
      </trkpt>
      <trkpt lat="48.0793" lon="3.33332">
        <ele>171</ele>
        <time>2017-06-29T20:35:57Z</time>
      </trkpt>
      <trkpt lat="48.07944" lon="3.3337">
        <ele>172</ele>
        <time>2017-06-29T20:37:57Z</time>
      </trkpt>
      <trkpt lat="48.07968" lon="3.33392">
        <ele>173</ele>
        <time>2017-06-29T20:39:57Z</time>
      </trkpt>
      <trkpt lat="48.07994" lon="3.33365">
        <ele>173</ele>
        <time>2017-06-29T20:41:57Z</time>
      </trkpt>
      <trkpt lat="48.08024" lon="3.33342">
        <ele>174</ele>
        <time>2017-06-29T20:43:57Z</time>
      </trkpt>
      <trkpt lat="48.08059" lon="3.33306">
        <ele>176</ele>
        <time>2017-06-29T20:45:57Z</time>
      </trkpt>
      <trkpt lat="48.08076" lon="3.33257">
        <ele>176</ele>
        <time>2017-06-29T20:47:57Z</time>
      </trkpt>
      <trkpt lat="48.081" lon="3.33198">
        <ele>175</ele>
        <time>2017-06-29T20:49:57Z</time>
      </trkpt>
      <trkpt lat="48.08131" lon="3.33142">
        <ele>175</ele>
        <time>2017-06-29T20:51:57Z</time>
      </trkpt>
      <trkpt lat="48.08165" lon="3.33086">
        <ele>174</ele>
        <time>2017-06-29T20:53:57Z</time>
      </trkpt>
      <trkpt lat="48.08197" lon="3.33024">
        <ele>173</ele>
        <time>2017-06-29T20:55:57Z</time>
      </trkpt>
      <trkpt lat="48.08223" lon="3.32962">
        <ele>171</ele>
        <time>2017-06-29T20:57:57Z</time>
      </trkpt>
      <trkpt lat="48.08251" lon="3.3291">
        <ele>170</ele>
        <time>2017-06-29T20:59:57Z</time>
      </trkpt>
      <trkpt lat="48.08283" lon="3.32864">
        <ele>169</ele>
        <time>2017-06-29T21:01:57Z</time>
      </trkpt>
      <trkpt lat="48.0829" lon="3.32798">
        <ele>169</ele>
        <time>2017-06-29T21:03:57Z</time>
      </trkpt>
      <trkpt lat="48.08277" lon="3.32729">
        <ele>168</ele>
        <time>2017-06-29T21:05:57Z</time>
      </trkpt>
      <trkpt lat="48.08273" lon="3.32665">
        <ele>168</ele>
        <time>2017-06-29T21:07:57Z</time>
      </trkpt>
      <trkpt lat="48.08279" lon="3.32603">
        <ele>169</ele>
        <time>2017-06-29T21:09:57Z</time>
      </trkpt>
      <trkpt lat="48.08298" lon="3.32541">
        <ele>170</ele>
        <time>2017-06-29T21:11:57Z</time>
      </trkpt>
      <trkpt lat="48.08327" lon="3.32485">
        <ele>171</ele>
        <time>2017-06-29T21:13:57Z</time>
      </trkpt>
      <trkpt lat="48.08353" lon="3.32426">
        <ele>172</ele>
        <time>2017-06-29T21:15:57Z</time>
      </trkpt>
      <trkpt lat="48.0838" lon="3.32367">
        <ele>171</ele>
        <time>2017-06-29T21:17:57Z</time>
      </trkpt>
      <trkpt lat="48.08411" lon="3.32306">
        <ele>171</ele>
        <time>2017-06-29T21:19:57Z</time>
      </trkpt>
      <trkpt lat="48.08437" lon="3.32247">
        <ele>172</ele>
        <time>2017-06-29T21:21:57Z</time>
      </trkpt>
      <trkpt lat="48.08468" lon="3.32195">
        <ele>171</ele>
        <time>2017-06-29T21:23:57Z</time>
      </trkpt>
      <trkpt lat="48.08493" lon="3.32159">
        <ele>171</ele>
        <time>2017-06-29T21:25:57Z</time>
      </trkpt>
      <trkpt lat="48.08527" lon="3.32116">
        <ele>171</ele>
        <time>2017-06-29T21:27:57Z</time>
      </trkpt>
      <trkpt lat="48.08564" lon="3.32068">
        <ele>172</ele>
        <time>2017-06-29T21:29:57Z</time>
      </trkpt>
      <trkpt lat="48.08594" lon="3.32015">
        <ele>171</ele>
        <time>2017-06-29T21:31:57Z</time>
      </trkpt>
      <trkpt lat="48.08625" lon="3.3197">
        <ele>169</ele>
        <time>2017-06-29T21:33:57Z</time>
      </trkpt>
      <trkpt lat="48.08655" lon="3.31913">
        <ele>169</ele>
        <time>2017-06-29T21:35:57Z</time>
      </trkpt>
      <trkpt lat="48.08668" lon="3.31847">
        <ele>167</ele>
        <time>2017-06-29T21:37:57Z</time>
      </trkpt>
      <trkpt lat="48.08706" lon="3.31829">
        <ele>169</ele>
        <time>2017-06-29T21:39:57Z</time>
      </trkpt>
      <trkpt lat="48.08745" lon="3.31824">
        <ele>172</ele>
        <time>2017-06-29T21:41:57Z</time>
      </trkpt>
      <trkpt lat="48.08785" lon="3.31824">
        <ele>172</ele>
        <time>2017-06-29T21:43:57Z</time>
      </trkpt>
      <trkpt lat="48.0882" lon="3.3182">
        <ele>172</ele>
        <time>2017-06-29T21:45:57Z</time>
      </trkpt>
      <trkpt lat="48.08845" lon="3.31857">
        <ele>171</ele>
        <time>2017-06-29T21:47:57Z</time>
      </trkpt>
      <trkpt lat="48.08852" lon="3.31877">
        <ele>171</ele>
        <time>2017-06-29T21:49:57Z</time>
      </trkpt>
      <trkpt lat="48.08872" lon="3.31938">
        <ele>170</ele>
        <time>2017-06-29T21:51:57Z</time>
      </trkpt>
      <trkpt lat="48.08896" lon="3.31957">
        <ele>167</ele>
        <time>2017-06-29T21:53:57Z</time>
      </trkpt>
      <trkpt lat="48.08903" lon="3.31907">
        <ele>165</ele>
        <time>2017-06-29T21:55:57Z</time>
      </trkpt>
      <trkpt lat="48.08919" lon="3.31843">
        <ele>160</ele>
        <time>2017-06-29T21:57:57Z</time>
      </trkpt>
      <trkpt lat="48.08934" lon="3.31781">
        <ele>154</ele>
        <time>2017-06-29T21:59:57Z</time>
      </trkpt>
      <trkpt lat="48.08942" lon="3.31714">
        <ele>150</ele>
        <time>2017-06-29T22:01:57Z</time>
      </trkpt>
      <trkpt lat="48.08958" lon="3.31648">
        <ele>142</ele>
        <time>2017-06-29T22:03:57Z</time>
      </trkpt>
      <trkpt lat="48.08974" lon="3.31576">
        <ele>133</ele>
        <time>2017-06-29T22:05:57Z</time>
      </trkpt>
      <trkpt lat="48.08988" lon="3.31506">
        <ele>126</ele>
        <time>2017-06-29T22:07:57Z</time>
      </trkpt>
      <trkpt lat="48.08975" lon="3.31442">
        <ele>129</ele>
        <time>2017-06-29T22:09:57Z</time>
      </trkpt>
      <trkpt lat="48.08961" lon="3.31375">
        <ele>131</ele>
        <time>2017-06-29T22:11:57Z</time>
      </trkpt>
      <trkpt lat="48.08958" lon="3.31301">
        <ele>129</ele>
        <time>2017-06-29T22:13:57Z</time>
      </trkpt>
      <trkpt lat="48.08948" lon="3.31146">
        <ele>126</ele>
        <time>2017-06-29T22:15:57Z</time>
      </trkpt>
      <trkpt lat="48.08941" lon="3.31067">
        <ele>125</ele>
        <time>2017-06-29T22:17:57Z</time>
      </trkpt>
      <trkpt lat="48.08936" lon="3.30995">
        <ele>123</ele>
        <time>2017-06-29T22:19:57Z</time>
      </trkpt>
      <trkpt lat="48.08928" lon="3.30917">
        <ele>124</ele>
        <time>2017-06-29T22:21:57Z</time>
      </trkpt>
      <trkpt lat="48.08923" lon="3.3085">
        <ele>123</ele>
        <time>2017-06-29T22:23:57Z</time>
      </trkpt>
      <trkpt lat="48.08919" lon="3.30785">
        <ele>121</ele>
        <time>2017-06-29T22:25:57Z</time>
      </trkpt>
      <trkpt lat="48.08905" lon="3.30718">
        <ele>121</ele>
        <time>2017-06-29T22:27:57Z</time>
      </trkpt>
      <trkpt lat="48.08894" lon="3.30651">
        <ele>120</ele>
        <time>2017-06-29T22:29:57Z</time>
      </trkpt>
      <trkpt lat="48.0889" lon="3.30591">
        <ele>116</ele>
        <time>2017-06-29T22:31:57Z</time>
      </trkpt>
      <trkpt lat="48.08898" lon="3.30589">
        <ele>114</ele>
        <time>2017-06-29T22:33:57Z</time>
      </trkpt>
      <trkpt lat="48.08881" lon="3.30556">
        <ele>113</ele>
        <time>2017-06-29T22:35:57Z</time>
      </trkpt>
      <trkpt lat="48.08849" lon="3.30511">
        <ele>114</ele>
        <time>2017-06-29T22:37:57Z</time>
      </trkpt>
      <trkpt lat="48.08828" lon="3.30476">
        <ele>113</ele>
        <time>2017-06-29T22:39:57Z</time>
      </trkpt>
      <trkpt lat="48.08799" lon="3.30419">
        <ele>109</ele>
        <time>2017-06-29T22:41:57Z</time>
      </trkpt>
      <trkpt lat="48.0877" lon="3.30361">
        <ele>105</ele>
        <time>2017-06-29T22:43:57Z</time>
      </trkpt>
      <trkpt lat="48.0873" lon="3.3032">
        <ele>102</ele>
        <time>2017-06-29T22:45:57Z</time>
      </trkpt>
      <trkpt lat="48.08684" lon="3.30299">
        <ele>101</ele>
        <time>2017-06-29T22:47:57Z</time>
      </trkpt>
      <trkpt lat="48.08669" lon="3.30247">
        <ele>97</ele>
        <time>2017-06-29T22:49:57Z</time>
      </trkpt>
      <trkpt lat="48.08679" lon="3.30182">
        <ele>90</ele>
        <time>2017-06-29T22:51:57Z</time>
      </trkpt>
      <trkpt lat="48.0868" lon="3.30156">
        <ele>88</ele>
        <time>2017-06-29T22:53:57Z</time>
      </trkpt>
      <trkpt lat="48.08713" lon="3.30117">
        <ele>83</ele>
        <time>2017-06-29T22:55:57Z</time>
      </trkpt>
      <trkpt lat="48.08749" lon="3.30078">
        <ele>80</ele>
        <time>2017-06-29T22:57:57Z</time>
      </trkpt>
      <trkpt lat="48.08788" lon="3.30041">
        <ele>77</ele>
        <time>2017-06-29T22:59:57Z</time>
      </trkpt>
      <trkpt lat="48.08778" lon="3.30016">
        <ele>76</ele>
        <time>2017-06-29T23:01:57Z</time>
      </trkpt>
      <trkpt lat="48.08744" lon="3.29958">
        <ele>76</ele>
        <time>2017-06-29T23:03:57Z</time>
      </trkpt>
      <trkpt lat="48.08705" lon="3.29919">
        <ele>76</ele>
        <time>2017-06-29T23:05:57Z</time>
      </trkpt>
      <trkpt lat="48.08664" lon="3.29886">
        <ele>77</ele>
        <time>2017-06-29T23:07:57Z</time>
      </trkpt>
      <trkpt lat="48.08623" lon="3.29852">
        <ele>78</ele>
        <time>2017-06-29T23:09:57Z</time>
      </trkpt>
      <trkpt lat="48.08611" lon="3.29851">
        <ele>79</ele>
        <time>2017-06-29T23:11:57Z</time>
      </trkpt>
      <trkpt lat="48.0861" lon="3.29833">
        <ele>79</ele>
        <time>2017-06-29T23:13:57Z</time>
      </trkpt>
      <trkpt lat="48.08597" lon="3.29765">
        <ele>77</ele>
        <time>2017-06-29T23:15:57Z</time>
      </trkpt>
      <trkpt lat="48.08594" lon="3.29723">
        <ele>76</ele>
        <time>2017-06-29T23:17:57Z</time>
      </trkpt>
      <trkpt lat="48.08596" lon="3.29655">
        <ele>75</ele>
        <time>2017-06-29T23:19:57Z</time>
      </trkpt>
      <trkpt lat="48.08592" lon="3.29589">
        <ele>73</ele>
        <time>2017-06-29T23:21:57Z</time>
      </trkpt>
      <trkpt lat="48.08585" lon="3.29534">
        <ele>72</ele>
        <time>2017-06-29T23:23:57Z</time>
      </trkpt>
      <trkpt lat="48.08553" lon="3.29532">
        <ele>73</ele>
        <time>2017-06-29T23:25:57Z</time>
      </trkpt>
      <trkpt lat="48.08553" lon="3.29482">
        <ele>73</ele>
        <time>2017-06-29T23:27:57Z</time>
      </trkpt>
      <trkpt lat="48.08559" lon="3.29417">
        <ele>74</ele>
        <time>2017-06-29T23:29:57Z</time>
      </trkpt>
      <trkpt lat="48.08558" lon="3.29364">
        <ele>72</ele>
        <time>2017-06-29T23:31:57Z</time>
      </trkpt>
      <trkpt lat="48.08563" lon="3.29328">
        <ele>71</ele>
        <time>2017-06-29T23:33:57Z</time>
      </trkpt>
      <trkpt lat="48.08553" lon="3.29327">
        <ele>70</ele>
        <time>2017-06-29T23:35:57Z</time>
      </trkpt>
      <trkpt lat="48.08521" lon="3.2933">
        <ele>70</ele>
        <time>2017-06-29T23:37:57Z</time>
      </trkpt>
      <trkpt lat="48.0848" lon="3.29337">
        <ele>70</ele>
        <time>2017-06-29T23:39:57Z</time>
      </trkpt>
      <trkpt lat="48.08421" lon="3.29344">
        <ele>68</ele>
        <time>2017-06-29T23:41:57Z</time>
      </trkpt>
      <trkpt lat="48.08382" lon="3.29352">
        <ele>70</ele>
        <time>2017-06-29T23:43:57Z</time>
      </trkpt>
      <trkpt lat="48.08349" lon="3.2935">
        <ele>71</ele>
        <time>2017-06-29T23:45:57Z</time>
      </trkpt>
      <trkpt lat="48.08305" lon="3.29344">
        <ele>72</ele>
        <time>2017-06-29T23:47:57Z</time>
      </trkpt>
      <trkpt lat="48.08276" lon="3.29333">
        <ele>73</ele>
        <time>2017-06-29T23:49:57Z</time>
      </trkpt>
      <trkpt lat="48.08239" lon="3.29319">
        <ele>74</ele>
        <time>2017-06-29T23:51:57Z</time>
      </trkpt>
      <trkpt lat="48.08222" lon="3.29307">
        <ele>73</ele>
        <time>2017-06-29T23:53:57Z</time>
      </trkpt>
      <trkpt lat="48.08218" lon="3.29356">
        <ele>75</ele>
        <time>2017-06-29T23:55:57Z</time>
      </trkpt>
      <trkpt lat="48.08207" lon="3.29401">
        <ele>77</ele>
        <time>2017-06-29T23:57:57Z</time>
      </trkpt>
      <trkpt lat="48.0821" lon="3.29442">
        <ele>78</ele>
        <time>2017-06-29T23:59:57Z</time>
      </trkpt>
      <trkpt lat="48.08188" lon="3.29447">
        <ele>79</ele>
        <time>2017-06-30T00:01:57Z</time>
      </trkpt>
      <trkpt lat="48.08184" lon="3.29492">
        <ele>80</ele>
        <time>2017-06-30T00:03:57Z</time>
      </trkpt>
      <trkpt lat="48.08179" lon="3.29537">
        <ele>80</ele>
        <time>2017-06-30T00:05:57Z</time>
      </trkpt>
      <trkpt lat="48.08179" lon="3.29605">
        <ele>79</ele>
        <time>2017-06-30T00:07:57Z</time>
      </trkpt>
      <trkpt lat="48.08172" lon="3.29648">
        <ele>80</ele>
        <time>2017-06-30T00:09:57Z</time>
      </trkpt>
      <trkpt lat="48.08165" lon="3.29721">
        <ele>81</ele>
        <time>2017-06-30T00:11:57Z</time>
      </trkpt>
      <trkpt lat="48.08158" lon="3.29802">
        <ele>80</ele>
        <time>2017-06-30T00:13:57Z</time>
      </trkpt>
      <trkpt lat="48.08151" lon="3.2988">
        <ele>80</ele>
        <time>2017-06-30T00:15:57Z</time>
      </trkpt>
      <trkpt lat="48.08112" lon="3.2993">
        <ele>79</ele>
        <time>2017-06-30T00:17:57Z</time>
      </trkpt>
      <trkpt lat="48.08061" lon="3.29924">
        <ele>78</ele>
        <time>2017-06-30T00:19:57Z</time>
      </trkpt>
      <trkpt lat="48.08014" lon="3.29915">
        <ele>79</ele>
        <time>2017-06-30T00:21:57Z</time>
      </trkpt>
      <trkpt lat="48.07983" lon="3.29933">
        <ele>79</ele>
        <time>2017-06-30T00:23:57Z</time>
      </trkpt>
      <trkpt lat="48.07984" lon="3.2999">
        <ele>80</ele>
        <time>2017-06-30T00:25:57Z</time>
      </trkpt>
      <trkpt lat="48.07987" lon="3.30062">
        <ele>83</ele>
        <time>2017-06-30T00:27:57Z</time>
      </trkpt>
      <trkpt lat="48.0798" lon="3.30122">
        <ele>87</ele>
        <time>2017-06-30T00:29:57Z</time>
      </trkpt>
      <trkpt lat="48.07978" lon="3.30153">
        <ele>90</ele>
        <time>2017-06-30T00:31:57Z</time>
      </trkpt>
      <trkpt lat="48.07996" lon="3.30202">
        <ele>92</ele>
        <time>2017-06-30T00:33:57Z</time>
      </trkpt>
      <trkpt lat="48.08004" lon="3.30252">
        <ele>96</ele>
        <time>2017-06-30T00:35:57Z</time>
      </trkpt>
      <trkpt lat="48.08007" lon="3.30302">
        <ele>101</ele>
        <time>2017-06-30T00:37:57Z</time>
      </trkpt>
      <trkpt lat="48.08005" lon="3.30348">
        <ele>105</ele>
        <time>2017-06-30T00:39:57Z</time>
      </trkpt>
      <trkpt lat="48.07992" lon="3.30385">
        <ele>109</ele>
        <time>2017-06-30T00:41:57Z</time>
      </trkpt>
      <trkpt lat="48.07979" lon="3.30404">
        <ele>112</ele>
        <time>2017-06-30T00:43:57Z</time>
      </trkpt>
      <trkpt lat="48.07982" lon="3.30397">
        <ele>111</ele>
        <time>2017-06-30T00:45:57Z</time>
      </trkpt>
      <trkpt lat="48.07984" lon="3.30401">
        <ele>111</ele>
        <time>2017-06-30T00:47:57Z</time>
      </trkpt>
      <trkpt lat="48.07983" lon="3.30404">
        <ele>111</ele>
        <time>2017-06-30T00:49:57Z</time>
      </trkpt>
      <trkpt lat="48.0798" lon="3.30402">
        <ele>111</ele>
        <time>2017-06-30T00:51:57Z</time>
      </trkpt>
      <trkpt lat="48.07982" lon="3.30395">
        <ele>111</ele>
        <time>2017-06-30T00:53:57Z</time>
      </trkpt>
      <trkpt lat="48.07963" lon="3.30391">
        <ele>113</ele>
        <time>2017-06-30T00:55:57Z</time>
      </trkpt>
      <trkpt lat="48.07923" lon="3.30363">
        <ele>115</ele>
        <time>2017-06-30T00:57:57Z</time>
      </trkpt>
      <trkpt lat="48.07887" lon="3.30365">
        <ele>119</ele>
        <time>2017-06-30T00:59:57Z</time>
      </trkpt>
      <trkpt lat="48.07849" lon="3.30338">
        <ele>120</ele>
        <time>2017-06-30T01:01:57Z</time>
      </trkpt>
      <trkpt lat="48.07807" lon="3.30313">
        <ele>119</ele>
        <time>2017-06-30T01:03:57Z</time>
      </trkpt>
      <trkpt lat="48.07778" lon="3.30325">
        <ele>121</ele>
        <time>2017-06-30T01:05:57Z</time>
      </trkpt>
      <trkpt lat="48.07734" lon="3.30317">
        <ele>122</ele>
        <time>2017-06-30T01:07:57Z</time>
      </trkpt>
      <trkpt lat="48.07688" lon="3.30309">
        <ele>123</ele>
        <time>2017-06-30T01:09:57Z</time>
      </trkpt>
      <trkpt lat="48.07646" lon="3.30288">
        <ele>122</ele>
        <time>2017-06-30T01:11:57Z</time>
      </trkpt>
      <trkpt lat="48.07604" lon="3.30261">
        <ele>121</ele>
        <time>2017-06-30T01:13:57Z</time>
      </trkpt>
      <trkpt lat="48.07583" lon="3.30261">
        <ele>121</ele>
        <time>2017-06-30T01:15:57Z</time>
      </trkpt>
      <trkpt lat="48.07581" lon="3.30259">
        <ele>121</ele>
        <time>2017-06-30T01:17:57Z</time>
      </trkpt>
      <trkpt lat="48.07589" lon="3.30262">
        <ele>121</ele>
        <time>2017-06-30T01:19:57Z</time>
      </trkpt>
      <trkpt lat="48.07592" lon="3.30261">
        <ele>121</ele>
        <time>2017-06-30T01:21:57Z</time>
      </trkpt>
      <trkpt lat="48.0757" lon="3.30257">
        <ele>121</ele>
        <time>2017-06-30T01:23:57Z</time>
      </trkpt>
      <trkpt lat="48.07556" lon="3.30247">
        <ele>121</ele>
        <time>2017-06-30T01:25:57Z</time>
      </trkpt>
      <trkpt lat="48.07556" lon="3.30245">
        <ele>120</ele>
        <time>2017-06-30T01:27:57Z</time>
      </trkpt>
      <trkpt lat="48.07558" lon="3.30251">
        <ele>121</ele>
        <time>2017-06-30T01:29:57Z</time>
      </trkpt>
      <trkpt lat="48.07561" lon="3.30254">
        <ele>121</ele>
        <time>2017-06-30T01:31:57Z</time>
      </trkpt>
      <trkpt lat="48.07557" lon="3.30257">
        <ele>122</ele>
        <time>2017-06-30T01:33:57Z</time>
      </trkpt>
      <trkpt lat="48.07566" lon="3.30279">
        <ele>124</ele>
        <time>2017-06-30T01:35:57Z</time>
      </trkpt>
      <trkpt lat="48.07568" lon="3.3031">
        <ele>128</ele>
        <time>2017-06-30T01:37:57Z</time>
      </trkpt>
      <trkpt lat="48.07523" lon="3.3031">
        <ele>129</ele>
        <time>2017-06-30T01:39:57Z</time>
      </trkpt>
      <trkpt lat="48.07506" lon="3.303">
        <ele>129</ele>
        <time>2017-06-30T01:41:57Z</time>
      </trkpt>
      <trkpt lat="48.07502" lon="3.303">
        <ele>129</ele>
        <time>2017-06-30T01:43:57Z</time>
      </trkpt>
      <trkpt lat="48.07459" lon="3.30299">
        <ele>129</ele>
        <time>2017-06-30T01:45:57Z</time>
      </trkpt>
      <trkpt lat="48.07413" lon="3.30293">
        <ele>129</ele>
        <time>2017-06-30T01:47:57Z</time>
      </trkpt>
      <trkpt lat="48.07372" lon="3.30316">
        <ele>132</ele>
        <time>2017-06-30T01:49:57Z</time>
      </trkpt>
      <trkpt lat="48.0733" lon="3.3031">
        <ele>132</ele>
        <time>2017-06-30T01:51:57Z</time>
      </trkpt>
      <trkpt lat="48.07318" lon="3.30304">
        <ele>134</ele>
        <time>2017-06-30T01:53:57Z</time>
      </trkpt>
      <trkpt lat="48.07297" lon="3.30344">
        <ele>139</ele>
        <time>2017-06-30T01:55:57Z</time>
      </trkpt>
      <trkpt lat="48.07269" lon="3.30386">
        <ele>143</ele>
        <time>2017-06-30T01:57:57Z</time>
      </trkpt>
      <trkpt lat="48.07242" lon="3.30417">
        <ele>146</ele>
        <time>2017-06-30T01:59:57Z</time>
      </trkpt>
      <trkpt lat="48.07225" lon="3.30444">
        <ele>151</ele>
        <time>2017-06-30T02:01:57Z</time>
      </trkpt>
      <trkpt lat="48.07181" lon="3.30516">
        <ele>161</ele>
        <time>2017-06-30T02:03:57Z</time>
      </trkpt>
      <trkpt lat="48.07164" lon="3.30538">
        <ele>163</ele>
        <time>2017-06-30T02:05:57Z</time>
      </trkpt>
      <trkpt lat="48.07144" lon="3.30568">
        <ele>165</ele>
        <time>2017-06-30T02:07:57Z</time>
      </trkpt>
      <trkpt lat="48.0712" lon="3.30583">
        <ele>167</ele>
        <time>2017-06-30T02:09:57Z</time>
      </trkpt>
      <trkpt lat="48.07089" lon="3.30612">
        <ele>169</ele>
        <time>2017-06-30T02:11:57Z</time>
      </trkpt>
      <trkpt lat="48.0705" lon="3.30624">
        <ele>169</ele>
        <time>2017-06-30T02:13:57Z</time>
      </trkpt>
      <trkpt lat="48.07011" lon="3.3063">
        <ele>170</ele>
        <time>2017-06-30T02:15:57Z</time>
      </trkpt>
      <trkpt lat="48.06968" lon="3.30647">
        <ele>170</ele>
        <time>2017-06-30T02:17:57Z</time>
      </trkpt>
      <trkpt lat="48.06929" lon="3.30666">
        <ele>170</ele>
        <time>2017-06-30T02:19:57Z</time>
      </trkpt>
      <trkpt lat="48.06887" lon="3.30685">
        <ele>169</ele>
        <time>2017-06-30T02:21:57Z</time>
      </trkpt>
      <trkpt lat="48.06872" lon="3.30696">
        <ele>169</ele>
        <time>2017-06-30T02:23:57Z</time>
      </trkpt>
      <trkpt lat="48.06866" lon="3.30694">
        <ele>168</ele>
        <time>2017-06-30T02:25:57Z</time>
      </trkpt>
      <trkpt lat="48.06863" lon="3.30693">
        <ele>168</ele>
        <time>2017-06-30T02:27:57Z</time>
      </trkpt>
      <trkpt lat="48.06866" lon="3.30694">
        <ele>168</ele>
        <time>2017-06-30T02:29:57Z</time>
      </trkpt>
      <trkpt lat="48.06865" lon="3.30697">
        <ele>168</ele>
        <time>2017-06-30T02:31:57Z</time>
      </trkpt>
      <trkpt lat="48.06864" lon="3.30697">
        <ele>168</ele>
        <time>2017-06-30T02:33:57Z</time>
      </trkpt>
      <trkpt lat="48.06865" lon="3.30694">
        <ele>168</ele>
        <time>2017-06-30T02:35:57Z</time>
      </trkpt>
      <trkpt lat="48.06859" lon="3.30695">
        <ele>168</ele>
        <time>2017-06-30T02:37:57Z</time>
      </trkpt>
      <trkpt lat="48.06848" lon="3.30704">
        <ele>168</ele>
        <time>2017-06-30T02:39:57Z</time>
      </trkpt>
      <trkpt lat="48.06806" lon="3.30724">
        <ele>167</ele>
        <time>2017-06-30T02:41:57Z</time>
      </trkpt>
      <trkpt lat="48.06776" lon="3.3077">
        <ele>167</ele>
        <time>2017-06-30T02:43:57Z</time>
      </trkpt>
      <trkpt lat="48.06741" lon="3.3081">
        <ele>168</ele>
        <time>2017-06-30T02:45:57Z</time>
      </trkpt>
      <trkpt lat="48.06697" lon="3.30845">
        <ele>167</ele>
        <time>2017-06-30T02:47:57Z</time>
      </trkpt>
      <trkpt lat="48.06679" lon="3.30861">
        <ele>167</ele>
        <time>2017-06-30T02:49:57Z</time>
      </trkpt>
      <trkpt lat="48.06639" lon="3.30898">
        <ele>168</ele>
        <time>2017-06-30T02:51:57Z</time>
      </trkpt>
      <trkpt lat="48.06608" lon="3.30945">
        <ele>170</ele>
        <time>2017-06-30T02:53:57Z</time>
      </trkpt>
      <trkpt lat="48.06592" lon="3.30972">
        <ele>171</ele>
        <time>2017-06-30T02:55:57Z</time>
      </trkpt>
      <trkpt lat="48.06566" lon="3.30997">
        <ele>170</ele>
        <time>2017-06-30T02:57:57Z</time>
      </trkpt>
      <trkpt lat="48.06531" lon="3.31037">
        <ele>168</ele>
        <time>2017-06-30T02:59:57Z</time>
      </trkpt>
      <trkpt lat="48.06487" lon="3.31062">
        <ele>166</ele>
        <time>2017-06-30T03:01:57Z</time>
      </trkpt>
      <trkpt lat="48.0644" lon="3.31091">
        <ele>166</ele>
        <time>2017-06-30T03:03:57Z</time>
      </trkpt>
      <trkpt lat="48.0639" lon="3.31106">
        <ele>165</ele>
        <time>2017-06-30T03:05:57Z</time>
      </trkpt>
      <trkpt lat="48.06344" lon="3.31122">
        <ele>165</ele>
        <time>2017-06-30T03:07:57Z</time>
      </trkpt>
      <trkpt lat="48.0631" lon="3.31148">
        <ele>166</ele>
        <time>2017-06-30T03:09:57Z</time>
      </trkpt>
      <trkpt lat="48.06268" lon="3.31176">
        <ele>167</ele>
        <time>2017-06-30T03:11:57Z</time>
      </trkpt>
      <trkpt lat="48.06255" lon="3.31182">
        <ele>167</ele>
        <time>2017-06-30T03:13:57Z</time>
      </trkpt>
      <trkpt lat="48.06219" lon="3.3121">
        <ele>166</ele>
        <time>2017-06-30T03:15:57Z</time>
      </trkpt>
      <trkpt lat="48.06176" lon="3.31246">
        <ele>166</ele>
        <time>2017-06-30T03:17:57Z</time>
      </trkpt>
      <trkpt lat="48.06132" lon="3.3125">
        <ele>166</ele>
        <time>2017-06-30T03:19:57Z</time>
      </trkpt>
      <trkpt lat="48.061" lon="3.31251">
        <ele>165</ele>
        <time>2017-06-30T03:21:57Z</time>
      </trkpt>
      <trkpt lat="48.06102" lon="3.3125">
        <ele>165</ele>
        <time>2017-06-30T03:23:57Z</time>
      </trkpt>
      <trkpt lat="48.06101" lon="3.31253">
        <ele>165</ele>
        <time>2017-06-30T03:25:57Z</time>
      </trkpt>
      <trkpt lat="48.06102" lon="3.31254">
        <ele>165</ele>
        <time>2017-06-30T03:27:57Z</time>
      </trkpt>
      <trkpt lat="48.06066" lon="3.31274">
        <ele>165</ele>
        <time>2017-06-30T03:29:57Z</time>
      </trkpt>
      <trkpt lat="48.06031" lon="3.31313">
        <ele>166</ele>
        <time>2017-06-30T03:31:57Z</time>
      </trkpt>
      <trkpt lat="48.06003" lon="3.31355">
        <ele>168</ele>
        <time>2017-06-30T03:33:57Z</time>
      </trkpt>
      <trkpt lat="48.0596" lon="3.31393">
        <ele>169</ele>
        <time>2017-06-30T03:35:57Z</time>
      </trkpt>
      <trkpt lat="48.05918" lon="3.31432">
        <ele>169</ele>
        <time>2017-06-30T03:37:57Z</time>
      </trkpt>
      <trkpt lat="48.05875" lon="3.31466">
        <ele>169</ele>
        <time>2017-06-30T03:39:57Z</time>
      </trkpt>
      <trkpt lat="48.05838" lon="3.31502">
        <ele>169</ele>
        <time>2017-06-30T03:41:57Z</time>
      </trkpt>
      <trkpt lat="48.05804" lon="3.31524">
        <ele>168</ele>
        <time>2017-06-30T03:43:57Z</time>
      </trkpt>
      <trkpt lat="48.05752" lon="3.31552">
        <ele>166</ele>
        <time>2017-06-30T03:45:57Z</time>
      </trkpt>
      <trkpt lat="48.05719" lon="3.31603">
        <ele>166</ele>
        <time>2017-06-30T03:47:57Z</time>
      </trkpt>
      <trkpt lat="48.0569" lon="3.31664">
        <ele>166</ele>
        <time>2017-06-30T03:49:57Z</time>
      </trkpt>
      <trkpt lat="48.0565" lon="3.31705">
        <ele>164</ele>
        <time>2017-06-30T03:51:57Z</time>
      </trkpt>
      <trkpt lat="48.05619" lon="3.31711">
        <ele>162</ele>
        <time>2017-06-30T03:53:57Z</time>
      </trkpt>
      <trkpt lat="48.05569" lon="3.31719">
        <ele>158</ele>
        <time>2017-06-30T03:55:57Z</time>
      </trkpt>
      <trkpt lat="48.05519" lon="3.31711">
        <ele>154</ele>
        <time>2017-06-30T03:57:57Z</time>
      </trkpt>
      <trkpt lat="48.05481" lon="3.31708">
        <ele>150</ele>
        <time>2017-06-30T03:59:57Z</time>
      </trkpt>
      <trkpt lat="48.05436" lon="3.31698">
        <ele>143</ele>
        <time>2017-06-30T04:01:57Z</time>
      </trkpt>
      <trkpt lat="48.05399" lon="3.3167">
        <ele>137</ele>
        <time>2017-06-30T04:03:57Z</time>
      </trkpt>
      <trkpt lat="48.0536" lon="3.31659">
        <ele>131</ele>
        <time>2017-06-30T04:05:57Z</time>
      </trkpt>
      <trkpt lat="48.05321" lon="3.31674">
        <ele>125</ele>
        <time>2017-06-30T04:07:57Z</time>
      </trkpt>
      <trkpt lat="48.05279" lon="3.31684">
        <ele>119</ele>
        <time>2017-06-30T04:09:57Z</time>
      </trkpt>
      <trkpt lat="48.0518" lon="3.31681">
        <ele>108</ele>
        <time>2017-06-30T04:11:57Z</time>
      </trkpt>
      <trkpt lat="48.05133" lon="3.31655">
        <ele>103</ele>
        <time>2017-06-30T04:13:57Z</time>
      </trkpt>
      <trkpt lat="48.05091" lon="3.31623">
        <ele>98</ele>
        <time>2017-06-30T04:15:57Z</time>
      </trkpt>
      <trkpt lat="48.05074" lon="3.31661">
        <ele>95</ele>
        <time>2017-06-30T04:17:57Z</time>
      </trkpt>
      <trkpt lat="48.05054" lon="3.31714">
        <ele>94</ele>
        <time>2017-06-30T04:19:57Z</time>
      </trkpt>
      <trkpt lat="48.05026" lon="3.31769">
        <ele>94</ele>
        <time>2017-06-30T04:21:57Z</time>
      </trkpt>
      <trkpt lat="48.04991" lon="3.3181">
        <ele>94</ele>
        <time>2017-06-30T04:23:57Z</time>
      </trkpt>
      <trkpt lat="48.04975" lon="3.31853">
        <ele>94</ele>
        <time>2017-06-30T04:25:57Z</time>
      </trkpt>
      <trkpt lat="48.04961" lon="3.31901">
        <ele>95</ele>
        <time>2017-06-30T04:27:57Z</time>
      </trkpt>
      <trkpt lat="48.04938" lon="3.31961">
        <ele>96</ele>
        <time>2017-06-30T04:29:57Z</time>
      </trkpt>
      <trkpt lat="48.04937" lon="3.31956">
        <ele>95</ele>
        <time>2017-06-30T04:31:57Z</time>
      </trkpt>
      <trkpt lat="48.04932" lon="3.31957">
        <ele>95</ele>
        <time>2017-06-30T04:33:57Z</time>
      </trkpt>
      <trkpt lat="48.04916" lon="3.31953">
        <ele>93</ele>
        <time>2017-06-30T04:35:57Z</time>
      </trkpt>
      <trkpt lat="48.04884" lon="3.31951">
        <ele>90</ele>
        <time>2017-06-30T04:37:57Z</time>
      </trkpt>
      <trkpt lat="48.04836" lon="3.31942">
        <ele>86</ele>
        <time>2017-06-30T04:39:57Z</time>
      </trkpt>
      <trkpt lat="48.04788" lon="3.31928">
        <ele>82</ele>
        <time>2017-06-30T04:41:57Z</time>
      </trkpt>
      <trkpt lat="48.04769" lon="3.31942">
        <ele>80</ele>
        <time>2017-06-30T04:43:57Z</time>
      </trkpt>
      <trkpt lat="48.04749" lon="3.3198">
        <ele>79</ele>
        <time>2017-06-30T04:45:57Z</time>
      </trkpt>
      <trkpt lat="48.04718" lon="3.3199">
        <ele>78</ele>
        <time>2017-06-30T04:47:57Z</time>
      </trkpt>
      <trkpt lat="48.04688" lon="3.32003">
        <ele>76</ele>
        <time>2017-06-30T04:49:57Z</time>
      </trkpt>
      <trkpt lat="48.04661" lon="3.31968">
        <ele>75</ele>
        <time>2017-06-30T04:51:57Z</time>
      </trkpt>
      <trkpt lat="48.04637" lon="3.31993">
        <ele>75</ele>
        <time>2017-06-30T04:53:57Z</time>
      </trkpt>
      <trkpt lat="48.04602" lon="3.32007">
        <ele>75</ele>
        <time>2017-06-30T04:55:57Z</time>
      </trkpt>
      <trkpt lat="48.04589" lon="3.31971">
        <ele>75</ele>
        <time>2017-06-30T04:57:57Z</time>
      </trkpt>
    </trkseg>
  </trk>
</gpx>